createdAt,value
2023-01-31T00:01:39.975Z,3.90
2023-01-31T00:04:09.024Z,3.22
2023-01-31T00:06:38.510Z,4.28
2023-01-31T00:09:06.581Z,3.20
2023-01-31T00:11:33.688Z,3.28
2023-01-31T00:14:02.045Z,3.13
2023-01-31T00:16:28.564Z,3.42
2023-01-31T00:18:55.008Z,4.00
2023-01-31T00:21:27.376Z,3.45
2023-01-31T00:23:55.642Z,3.50
2023-01-31T00:26:30.899Z,3.75
2023-01-31T00:28:59.413Z,5.40
2023-01-31T00:31:28.320Z,4.15
2023-01-31T00:33:55.871Z,3.92
2023-01-31T00:36:25.285Z,3.78
2023-01-31T00:38:53.758Z,5.03
2023-01-31T00:41:21.883Z,3.75
2023-01-31T00:43:48.563Z,3.90
2023-01-31T00:46:14.931Z,3.63
2023-01-31T00:48:42.439Z,3.97
2023-01-31T00:51:08.849Z,4.03
2023-01-31T00:53:35.941Z,3.95
2023-01-31T00:56:07.161Z,3.13
2023-01-31T00:58:35.866Z,5.78
2023-01-31T01:01:07.837Z,4.07
2023-01-31T01:03:34.770Z,3.65
2023-01-31T01:06:01.969Z,3.60
2023-01-31T01:08:29.311Z,4.68
2023-01-31T01:10:56.043Z,4.20
2023-01-31T01:13:22.604Z,3.55
2023-01-31T01:15:49.004Z,3.83
2023-01-31T01:18:16.323Z,3.63
2023-01-31T01:20:42.630Z,3.38
2023-01-31T01:23:08.919Z,3.72
2023-01-31T01:25:45.238Z,3.88
2023-01-31T01:28:11.680Z,3.25
2023-01-31T01:30:39.478Z,3.00
2023-01-31T01:33:05.970Z,3.45
2023-01-31T01:35:33.037Z,3.17
2023-01-31T01:37:59.378Z,4.13
2023-01-31T01:40:36.646Z,3.45
2023-01-31T01:43:03.359Z,3.58
2023-01-31T01:45:30.762Z,4.72
2023-01-31T01:48:01.065Z,3.40
2023-01-31T01:50:36.467Z,4.77
2023-01-31T01:53:10.875Z,3.70
2023-01-31T01:55:56.525Z,4.00
2023-01-31T01:58:39.474Z,4.20
2023-01-31T02:01:07.476Z,3.90
2023-01-31T02:03:34.454Z,4.05
2023-01-31T02:06:06.498Z,3.70
2023-01-31T02:08:36.112Z,3.75
2023-01-31T02:11:23.152Z,4.05
2023-01-31T02:13:52.946Z,4.13
2023-01-31T02:16:19.560Z,4.22
2023-01-31T02:18:46.944Z,4.32
2023-01-31T02:21:44.721Z,3.92
2023-01-31T02:24:39.592Z,6.03
2023-01-31T02:27:08.995Z,3.92
2023-01-31T02:30:03.922Z,4.55
2023-01-31T02:32:53.447Z,4.70
2023-01-31T02:35:37.678Z,4.38
2023-01-31T02:38:26.631Z,5.65
2023-01-31T02:41:22.736Z,4.13
2023-01-31T02:44:31.086Z,4.72
2023-01-31T02:47:27.830Z,3.55
2023-01-31T02:50:12.703Z,4.47
2023-01-31T02:52:53.220Z,4.47
2023-01-31T02:55:43.030Z,4.43
2023-01-31T02:58:12.256Z,4.20
2023-01-31T03:00:45.468Z,5.03
2023-01-31T03:03:25.166Z,5.65
2023-01-31T03:06:23.013Z,5.85
2023-01-31T03:09:02.246Z,4.95
2023-01-31T03:11:45.909Z,3.53
2023-01-31T03:14:27.455Z,4.30
2023-01-31T03:17:33.388Z,4.97
2023-01-31T03:20:17.439Z,4.00
2023-01-31T03:22:49.909Z,5.57
2023-01-31T03:25:20.182Z,4.68
2023-01-31T03:27:57.050Z,4.22
2023-01-31T03:30:40.705Z,5.82
2023-01-31T03:33:29.835Z,4.07
2023-01-31T03:36:05.615Z,3.75
2023-01-31T03:38:36.936Z,4.90
2023-01-31T03:44:12.071Z,3.65
2023-01-31T03:46:51.119Z,3.67
2023-01-31T03:49:20.253Z,3.67
2023-01-31T03:51:52.260Z,4.85
2023-01-31T03:54:28.073Z,3.78
2023-01-31T03:57:07.801Z,5.03
2023-01-31T03:59:38.228Z,4.60
2023-01-31T04:02:07.755Z,4.18
2023-01-31T04:04:46.133Z,4.65
2023-01-31T04:07:12.631Z,3.92
2023-01-31T04:09:39.842Z,4.50
2023-01-31T04:12:06.499Z,4.38
2023-01-31T04:14:32.828Z,5.28
2023-01-31T04:16:59.195Z,4.13
2023-01-31T04:19:25.529Z,3.08
2023-01-31T04:21:51.835Z,3.83
2023-01-31T04:24:18.140Z,3.80
2023-01-31T04:26:44.493Z,4.22
2023-01-31T04:29:10.946Z,3.97
2023-01-31T04:31:37.779Z,5.30
2023-01-31T04:34:04.118Z,4.60
2023-01-31T04:36:30.425Z,5.47
2023-01-31T04:38:56.738Z,3.65
2023-01-31T04:41:23.078Z,4.47
2023-01-31T04:43:49.379Z,3.72
2023-01-31T04:46:15.725Z,5.90
2023-01-31T04:48:42.136Z,3.95
2023-01-31T04:51:08.614Z,4.00
2023-01-31T04:53:35.079Z,4.60
2023-01-31T04:56:02.028Z,4.43
2023-01-31T04:58:28.509Z,4.40
2023-01-31T05:00:54.863Z,3.80
2023-01-31T05:03:21.213Z,4.85
2023-01-31T05:05:48.972Z,4.97
2023-01-31T05:08:15.359Z,4.80
2023-01-31T05:10:42.878Z,4.40
2023-01-31T05:13:10.297Z,4.32
2023-01-31T05:15:36.638Z,5.03
2023-01-31T05:18:03.259Z,5.35
2023-01-31T05:20:36.528Z,3.83
2023-01-31T05:23:03.096Z,4.13
2023-01-31T05:25:31.520Z,3.85
2023-01-31T05:27:58.634Z,4.57
2023-01-31T05:30:25.260Z,4.45
2023-01-31T05:32:51.916Z,4.45
2023-01-31T05:35:19.398Z,4.03
2023-01-31T05:37:46.118Z,4.80
2023-01-31T05:40:14.610Z,4.20
2023-01-31T05:42:41.332Z,4.20
2023-01-31T05:45:10.233Z,4.57
2023-01-31T05:47:36.672Z,4.32
2023-01-31T05:50:03.983Z,5.10
2023-01-31T05:52:30.305Z,5.20
2023-01-31T05:54:56.824Z,5.18
2023-01-31T05:57:23.132Z,5.13
2023-01-31T05:59:49.443Z,5.40
2023-01-31T06:02:15.892Z,5.45
2023-01-31T06:04:42.257Z,5.07
2023-01-31T06:07:08.559Z,6.20
2023-01-31T06:09:34.913Z,6.45
2023-01-31T06:12:01.218Z,5.90
2023-01-31T06:14:27.533Z,7.15
2023-01-31T06:16:53.962Z,6.65
2023-01-31T06:19:25.077Z,6.32
2023-01-31T06:21:51.794Z,7.00
2023-01-31T06:24:18.159Z,6.90
2023-01-31T06:26:44.459Z,6.57
2023-01-31T06:29:10.905Z,7.35
2023-01-31T06:31:37.331Z,6.40
2023-01-31T06:34:03.686Z,6.88
2023-01-31T06:36:33.957Z,7.05
2023-01-31T06:39:00.330Z,7.33
2023-01-31T06:41:26.637Z,7.45
2023-01-31T06:43:52.922Z,7.32
2023-01-31T06:46:19.266Z,7.07
2023-01-31T06:48:45.617Z,7.32
2023-01-31T06:51:11.920Z,6.53
2023-01-31T06:53:38.213Z,6.68
2023-01-31T06:56:04.879Z,8.10
2023-01-31T06:58:31.499Z,7.25
2023-01-31T07:00:58.659Z,7.53
2023-01-31T07:03:24.951Z,7.95
2023-01-31T07:05:51.243Z,6.65
2023-01-31T07:08:17.557Z,7.25
2023-01-31T07:10:43.913Z,7.80
2023-01-31T07:13:10.324Z,6.82
2023-01-31T07:15:36.681Z,8.00
2023-01-31T07:18:03.101Z,6.93
2023-01-31T07:20:29.692Z,6.75
2023-01-31T07:22:57.184Z,7.38
2023-01-31T07:25:24.426Z,6.45
2023-01-31T07:27:51.551Z,7.05
2023-01-31T07:30:17.977Z,7.90
2023-01-31T07:32:44.442Z,7.28
2023-01-31T07:35:11.041Z,7.95
2023-01-31T07:37:39.255Z,8.25
2023-01-31T07:40:06.361Z,7.43
2023-01-31T07:42:33.400Z,7.47
2023-01-31T07:45:06.965Z,6.57
2023-01-31T07:47:43.293Z,7.22
2023-01-31T07:50:10.478Z,11.85
2023-01-31T07:52:36.834Z,15.95
2023-01-31T07:55:03.203Z,13.75
2023-01-31T07:57:32.074Z,22.30
2023-01-31T07:59:58.466Z,31.00
2023-01-31T08:02:43.530Z,23.70
2023-01-31T08:05:11.299Z,23.90
2023-01-31T08:07:37.768Z,28.15
2023-01-31T08:10:04.388Z,18.88
2023-01-31T08:12:30.823Z,28.75
2023-01-31T08:14:57.131Z,18.25
2023-01-31T08:17:23.500Z,19.65
2023-01-31T08:19:49.857Z,15.30
2023-01-31T08:22:16.155Z,16.00
2023-01-31T08:24:42.516Z,19.25
2023-01-31T08:27:08.872Z,14.85
2023-01-31T08:29:36.142Z,9.00
2023-01-31T08:32:03.124Z,7.63
2023-01-31T08:34:29.643Z,8.18
2023-01-31T08:36:56.009Z,6.22
2023-01-31T08:39:22.365Z,5.97
2023-01-31T08:41:48.670Z,7.07
2023-01-31T08:44:15.178Z,7.55
2023-01-31T08:46:42.379Z,7.13
2023-01-31T08:49:10.078Z,5.88
2023-01-31T08:51:36.460Z,6.95
2023-01-31T08:54:02.998Z,7.80
2023-01-31T08:56:29.414Z,7.10
2023-01-31T08:58:57.264Z,7.10
2023-01-31T09:01:23.611Z,5.82
2023-01-31T09:03:50.803Z,5.88
2023-01-31T09:06:22.382Z,5.90
2023-01-31T09:08:48.919Z,7.32
2023-01-31T09:11:18.688Z,7.20
2023-01-31T09:13:47.036Z,7.32
2023-01-31T09:16:14.191Z,6.20
2023-01-31T09:18:42.215Z,6.53
2023-01-31T09:21:20.456Z,7.47
2023-01-31T09:23:47.985Z,6.50
2023-01-31T09:26:15.909Z,6.13
2023-01-31T09:28:43.538Z,6.50
2023-01-31T09:31:12.708Z,6.75
2023-01-31T09:33:39.614Z,6.65
2023-01-31T09:36:14.235Z,8.73
2023-01-31T09:38:41.064Z,7.72
2023-01-31T09:41:28.494Z,7.65
2023-01-31T09:44:23.618Z,8.30
2023-01-31T09:46:55.443Z,7.40
2023-01-31T09:49:42.782Z,7.40
2023-01-31T09:52:10.415Z,8.07
2023-01-31T09:54:39.687Z,6.68
2023-01-31T09:57:12.028Z,8.27
2023-01-31T09:59:42.690Z,7.57
2023-01-31T10:02:36.526Z,7.65
2023-01-31T10:05:29.841Z,7.95
2023-01-31T10:08:03.858Z,7.03
2023-01-31T10:10:39.583Z,6.65
2023-01-31T10:13:17.054Z,9.88
2023-01-31T10:15:49.240Z,10.98
2023-01-31T10:18:29.276Z,10.80
2023-01-31T10:21:03.572Z,10.05
2023-01-31T10:23:49.992Z,16.45
2023-01-31T10:26:23.614Z,8.60
2023-01-31T10:29:13.852Z,8.75
2023-01-31T10:31:48.965Z,8.40
2023-01-31T10:34:41.117Z,9.45
2023-01-31T10:37:30.181Z,9.88
2023-01-31T10:40:17.044Z,9.82
2023-01-31T10:42:52.512Z,9.88
2023-01-31T10:45:22.248Z,9.35
2023-01-31T10:47:56.019Z,8.65
2023-01-31T10:50:46.321Z,8.65
2023-01-31T10:53:36.171Z,8.68
2023-01-31T10:56:10.770Z,9.30
2023-01-31T10:58:38.034Z,13.40
2023-01-31T11:01:08.321Z,9.95
2023-01-31T11:03:35.147Z,8.70
2023-01-31T11:06:01.572Z,7.55
2023-01-31T11:08:33.368Z,8.70
2023-01-31T11:11:07.888Z,8.10
2023-01-31T11:13:34.359Z,8.48
2023-01-31T11:16:03.046Z,7.88
2023-01-31T11:18:43.588Z,8.25
2023-01-31T11:21:17.015Z,9.02
2023-01-31T11:23:44.834Z,9.18
2023-01-31T11:26:12.343Z,10.07
2023-01-31T11:28:40.223Z,8.30
2023-01-31T11:31:16.165Z,8.13
2023-01-31T11:33:57.355Z,8.20
2023-01-31T11:36:24.248Z,7.78
2023-01-31T11:38:51.313Z,8.90
2023-01-31T11:41:36.686Z,6.97
2023-01-31T11:44:16.046Z,6.80
2023-01-31T11:46:48.511Z,6.10
2023-01-31T11:49:40.584Z,6.55
2023-01-31T11:52:16.498Z,7.10
2023-01-31T11:54:49.333Z,5.72
2023-01-31T11:57:30.647Z,6.50
2023-01-31T12:02:40.453Z,6.25
2023-01-31T12:05:17.952Z,6.22
2023-01-31T12:07:47.740Z,7.25
2023-01-31T12:10:42.136Z,6.57
2023-01-31T12:13:18.901Z,7.00
2023-01-31T12:15:55.724Z,5.65
2023-01-31T12:18:46.361Z,6.15
2023-01-31T12:21:17.240Z,7.05
2023-01-31T12:24:10.958Z,9.43
2023-01-31T12:26:56.864Z,8.68
2023-01-31T12:29:47.975Z,7.10
2023-01-31T12:32:35.008Z,7.05
2023-01-31T12:35:26.722Z,6.53
2023-01-31T12:38:13.012Z,6.93
2023-01-31T12:41:00.839Z,6.60
2023-01-31T12:43:57.317Z,7.10
2023-01-31T12:46:45.510Z,7.93
2023-01-31T12:49:48.825Z,8.30
2023-01-31T12:52:44.811Z,10.02
2023-01-31T12:55:35.796Z,8.32
2023-01-31T12:58:31.629Z,8.05
2023-01-31T13:01:04.456Z,7.22
2023-01-31T13:03:43.579Z,7.88
2023-01-31T13:06:15.484Z,7.70
2023-01-31T13:09:08.287Z,9.00
2023-01-31T13:11:43.993Z,7.05
2023-01-31T13:14:19.778Z,7.53
2023-01-31T13:16:49.249Z,7.13
2023-01-31T13:19:31.941Z,6.70
2023-01-31T13:22:03.611Z,7.07
2023-01-31T13:24:37.560Z,7.45
2023-01-31T13:27:19.945Z,7.68
2023-01-31T13:29:52.941Z,8.02
2023-01-31T13:32:28.335Z,7.93
2023-01-31T13:35:02.716Z,7.45
2023-01-31T13:37:33.079Z,8.40
2023-01-31T13:40:21.392Z,8.63
2023-01-31T13:42:48.888Z,8.38
2023-01-31T13:45:27.032Z,8.98
2023-01-31T13:48:00.458Z,8.27
2023-01-31T13:50:42.205Z,7.75
2023-01-31T13:53:21.730Z,7.35
2023-01-31T13:55:50.896Z,7.35
2023-01-31T13:58:17.185Z,12.27
2023-01-31T14:00:46.826Z,12.57
2023-01-31T14:03:19.191Z,17.25
2023-01-31T14:05:47.549Z,13.35
2023-01-31T14:08:26.161Z,10.90
2023-01-31T14:10:54.046Z,10.40
2023-01-31T14:13:39.192Z,9.85
2023-01-31T14:16:34.202Z,10.15
2023-01-31T14:19:00.681Z,10.30
2023-01-31T14:21:29.724Z,13.35
2023-01-31T14:23:57.600Z,13.38
2023-01-31T14:26:42.146Z,13.60
2023-01-31T14:29:17.934Z,11.98
2023-01-31T14:31:46.219Z,16.85
2023-01-31T14:34:32.601Z,11.95
2023-01-31T14:36:58.864Z,12.25
2023-01-31T14:39:44.576Z,11.57
2023-01-31T14:42:26.661Z,11.45
2023-01-31T14:45:20.725Z,13.13
2023-01-31T14:48:14.202Z,9.73
2023-01-31T14:50:59.097Z,11.05
2023-01-31T14:54:10.121Z,10.20
2023-01-31T14:56:45.388Z,10.38
2023-01-31T14:59:54.954Z,9.88
2023-01-31T15:02:37.029Z,7.40
2023-01-31T15:05:11.712Z,7.97
2023-01-31T15:07:57.483Z,6.40
2023-01-31T15:10:55.013Z,6.25
2023-01-31T15:13:50.299Z,6.32
2023-01-31T15:16:43.639Z,6.00
2023-01-31T15:19:19.265Z,5.05
2023-01-31T15:21:50.471Z,5.68
2023-01-31T15:26:46.877Z,5.45
2023-01-31T15:29:23.658Z,5.72
2023-01-31T15:31:53.793Z,5.45
2023-01-31T15:34:25.507Z,5.90
2023-01-31T15:37:05.689Z,5.45
2023-01-31T15:39:38.454Z,4.88
2023-01-31T15:42:25.481Z,4.85
2023-01-31T15:45:13.341Z,5.20
2023-01-31T15:47:39.690Z,4.78
2023-01-31T15:50:14.705Z,5.30
2023-01-31T15:52:41.055Z,6.05
2023-01-31T15:55:11.292Z,5.47
2023-01-31T15:57:42.785Z,9.43
2023-01-31T16:00:19.054Z,11.88
2023-01-31T16:02:46.504Z,12.77
2023-01-31T16:05:22.181Z,11.18
2023-01-31T16:07:49.459Z,12.18
2023-01-31T16:10:16.488Z,10.82
2023-01-31T16:12:47.788Z,11.73
2023-01-31T16:15:23.905Z,11.23
2023-01-31T16:17:51.833Z,11.32
2023-01-31T16:20:36.555Z,7.30
2023-01-31T16:23:03.506Z,7.55
2023-01-31T16:25:34.685Z,8.05
2023-01-31T16:30:31.196Z,7.05
2023-01-31T16:32:57.609Z,6.53
2023-01-31T16:35:26.654Z,6.32
2023-01-31T16:38:16.478Z,5.50
2023-01-31T16:41:07.778Z,4.50
2023-01-31T16:43:35.102Z,6.65
2023-01-31T16:46:03.947Z,5.55
2023-01-31T16:48:38.480Z,5.22
2023-01-31T16:51:25.409Z,5.05
2023-01-31T16:54:18.283Z,5.28
2023-01-31T16:56:46.531Z,4.10
2023-01-31T16:59:34.751Z,7.40
2023-01-31T17:02:12.217Z,5.40
2023-01-31T17:04:39.721Z,4.78
2023-01-31T17:07:13.512Z,6.45
2023-01-31T17:09:39.944Z,9.82
2023-01-31T17:12:06.263Z,12.93
2023-01-31T17:14:34.388Z,14.38
2023-01-31T17:17:04.741Z,10.13
2023-01-31T17:19:33.609Z,6.25
2023-01-31T17:22:00.177Z,4.75
2023-01-31T17:24:26.607Z,5.47
2023-01-31T17:26:54.063Z,6.85
2023-01-31T17:29:21.209Z,9.52
2023-01-31T17:31:47.582Z,10.73
2023-01-31T17:34:15.254Z,7.22
2023-01-31T17:36:43.343Z,5.32
2023-01-31T17:39:09.708Z,4.78
2023-01-31T17:41:37.376Z,3.13
2023-01-31T17:44:06.298Z,3.53
2023-01-31T17:46:33.104Z,5.22
2023-01-31T17:48:59.436Z,6.18
2023-01-31T17:51:25.743Z,6.07
2023-01-31T17:53:52.197Z,7.13
2023-01-31T17:56:18.735Z,6.57
2023-01-31T17:58:45.484Z,7.07
2023-01-31T18:01:13.804Z,7.32
2023-01-31T18:03:41.108Z,6.25
2023-01-31T18:06:08.795Z,4.70
2023-01-31T18:08:35.663Z,3.63
2023-01-31T18:11:04.404Z,3.72
2023-01-31T18:13:30.871Z,3.15
2023-01-31T18:16:05.186Z,3.17
2023-01-31T18:18:31.703Z,3.47
2023-01-31T18:20:58.175Z,3.55
2023-01-31T18:23:24.822Z,3.60
2023-01-31T18:25:51.215Z,3.80
2023-01-31T18:28:17.544Z,3.28
2023-01-31T18:30:43.882Z,3.92
2023-01-31T18:33:10.287Z,3.80
2023-01-31T18:35:36.597Z,3.92
2023-01-31T18:38:06.529Z,3.10
2023-01-31T18:40:33.542Z,3.10
2023-01-31T18:42:59.980Z,4.18
2023-01-31T18:45:26.345Z,3.83
2023-01-31T18:47:52.677Z,3.72
2023-01-31T18:50:19.109Z,3.15
2023-01-31T18:52:47.187Z,3.13
2023-01-31T18:55:13.502Z,3.80
2023-01-31T18:57:39.804Z,3.58
2023-01-31T19:00:06.676Z,3.05
2023-01-31T19:02:33.000Z,3.78
2023-01-31T19:04:59.368Z,4.82
2023-01-31T19:07:25.680Z,4.30
2023-01-31T19:09:52.049Z,4.55
2023-01-31T19:12:18.463Z,4.40
2023-01-31T19:14:46.839Z,3.88
2023-01-31T19:17:15.295Z,4.22
2023-01-31T19:19:41.615Z,3.20
2023-01-31T19:22:07.971Z,3.40
2023-01-31T19:24:34.289Z,3.85
2023-01-31T19:27:00.603Z,3.85
2023-01-31T19:29:27.979Z,3.40
2023-01-31T19:31:54.883Z,3.22
2023-01-31T19:34:21.215Z,3.42
2023-01-31T19:36:48.888Z,3.13
2023-01-31T19:39:15.246Z,3.85
2023-01-31T19:41:42.330Z,3.53
2023-01-31T19:44:08.942Z,3.40
2023-01-31T19:46:36.838Z,3.10
2023-01-31T19:49:03.802Z,3.70
2023-01-31T19:51:30.457Z,3.20
2023-01-31T19:54:01.076Z,3.22
2023-01-31T19:56:27.867Z,2.80
2023-01-31T19:58:54.383Z,2.83
2023-01-31T20:01:20.785Z,3.10
2023-01-31T20:03:47.315Z,2.83
2023-01-31T20:06:16.400Z,3.42
2023-01-31T20:08:43.348Z,3.58
2023-01-31T20:11:10.700Z,3.20
2023-01-31T20:13:37.081Z,3.08
2023-01-31T20:16:09.724Z,3.53
2023-01-31T20:18:37.356Z,3.60
2023-01-31T20:21:04.295Z,3.38
2023-01-31T20:23:30.728Z,3.45
2023-01-31T20:25:58.179Z,3.42
2023-01-31T20:28:26.185Z,3.08
2023-01-31T20:30:53.120Z,3.80
2023-01-31T20:33:19.998Z,3.30
2023-01-31T20:35:46.840Z,3.42
2023-01-31T20:38:15.376Z,3.50
2023-01-31T20:40:41.715Z,3.85
2023-01-31T20:43:08.096Z,3.90
2023-01-31T20:45:35.201Z,3.88
2023-01-31T20:48:01.593Z,4.00
2023-01-31T20:50:28.132Z,5.03
2023-01-31T20:52:55.692Z,5.43
2023-01-31T20:55:23.434Z,4.07
2023-01-31T20:57:50.957Z,5.18
2023-01-31T21:00:19.674Z,4.85
2023-01-31T21:02:46.555Z,4.88
2023-01-31T21:05:13.141Z,6.15
2023-01-31T21:07:39.778Z,6.15
2023-01-31T21:10:07.156Z,8.23
2023-01-31T21:12:33.507Z,9.18
2023-01-31T21:15:00.003Z,13.55
2023-01-31T21:17:39.172Z,13.38
2023-01-31T21:20:07.531Z,11.43
2023-01-31T21:22:34.215Z,11.45
2023-01-31T21:25:00.550Z,8.73
2023-01-31T21:27:26.925Z,11.05
2023-01-31T21:29:53.238Z,9.45
2023-01-31T21:32:19.587Z,5.53
2023-01-31T21:34:45.878Z,5.35
2023-01-31T21:37:12.242Z,19.13
2023-01-31T21:39:38.562Z,14.82
2023-01-31T21:42:19.131Z,14.25
2023-01-31T21:44:47.322Z,19.58
2023-01-31T21:47:15.346Z,27.10
2023-01-31T21:49:42.135Z,30.40
2023-01-31T21:52:09.714Z,12.73
2023-01-31T21:54:36.390Z,19.60
2023-01-31T21:57:02.847Z,20.05
2023-01-31T21:59:29.190Z,17.75
2023-01-31T22:01:55.644Z,12.10
2023-01-31T22:04:23.198Z,11.52
2023-01-31T22:06:50.448Z,11.57
2023-01-31T22:09:17.584Z,16.17
2023-01-31T22:11:47.281Z,21.58
2023-01-31T22:14:15.718Z,11.60
2023-01-31T22:16:42.888Z,5.00
2023-01-31T22:19:14.234Z,4.45
2023-01-31T22:21:41.941Z,4.13
2023-01-31T22:24:11.366Z,4.10
2023-01-31T22:26:43.423Z,4.15
2023-01-31T22:29:12.659Z,4.65
2023-01-31T22:31:39.358Z,4.70
2023-01-31T22:34:07.028Z,4.30
2023-01-31T22:36:34.377Z,4.63
2023-01-31T22:39:01.073Z,4.15
2023-01-31T22:41:27.828Z,4.60
2023-01-31T22:43:54.580Z,4.85
2023-01-31T22:46:23.897Z,4.88
2023-01-31T22:48:51.099Z,4.80
2023-01-31T22:51:20.225Z,4.57
2023-01-31T22:53:47.283Z,4.15
2023-01-31T22:56:23.119Z,4.13
2023-01-31T22:58:54.050Z,4.40
2023-01-31T23:01:24.136Z,5.38
2023-01-31T23:03:50.520Z,4.68
2023-01-31T23:06:18.014Z,5.18
2023-01-31T23:08:44.928Z,5.68
2023-01-31T23:11:14.328Z,4.50
2023-01-31T23:13:41.592Z,4.57
2023-01-31T23:16:09.628Z,4.07
2023-01-31T23:18:36.273Z,4.53
2023-01-31T23:21:11.160Z,4.60
2023-01-31T23:23:37.721Z,5.35
2023-01-31T23:26:05.509Z,5.45
2023-01-31T23:28:32.061Z,5.65
2023-01-31T23:30:58.427Z,5.65
2023-01-31T23:33:24.837Z,5.88
2023-01-31T23:35:51.573Z,6.25
2023-01-31T23:38:17.941Z,5.32
2023-01-31T23:40:44.270Z,6.47
2023-01-31T23:43:10.589Z,6.35
2023-01-31T23:45:36.911Z,7.00
2023-01-31T23:48:03.373Z,7.28
2023-01-31T23:50:29.691Z,8.18
2023-01-31T23:52:55.999Z,7.93
2023-01-31T23:55:22.679Z,8.32
2023-01-31T23:57:50.021Z,8.40
